»·PEaware :: QXE5015 KASE-KPHX

QXE5015 :: KASE-KPHX

FLIGHT INFORMATION

Flight Status: Arrived
Operator:
Horizon Air
More flights by this operator :: More flights under this callsign
Pilot: Robert N. (17753)
Aircraft: DEHAVILLAND DASH 8 400
(DH8D)
More flights by this aircraft type
Origin: KASE Aspen-Pitkin Co/Sardy
United States
Destination: KPHX Phoenix Sky Harbor Intl
United States
More flights between these airports :: More routes between these airports
Route: LINDZ8 DBL J206 HBU J10 RSK GUP EAGUL6
File this flight plan on PilotEdge
Remarks: PBN / D1 DOF / 180102 REG / N847SB EET / KZAB0046 OPR / QXE PER / C RMK / TCAS SIMBRIEF
Altitude:
(Current/Filed)
24,000ft
Speed:
(Current/Filed)
322kts
Departed: 02-Jan-18 02:39 PM
Arrived: 02-Jan-18 04:08 PM
Distance/Time
Traveled:
426nm/1:29
Distance/Time
To Go:
Arrived

Flight Plot

Page will automatically refresh every two minutes.

Flight plan parsing failed; only flown route is shown


Map Options




Map Legend


Flown Route
Filed Route
Departure Airport
Arrival Airport
Navaid (VOR, NDB)
Fix

Horizontal Profiles

Position Reports

Time Latitude Longitude Heading Altitude Ground
Speed
02-Jan-18 14:21 39.219700 -106.865100 0 7827ft 0kts
02-Jan-18 14:22 39.219671 -106.865054 71 7827ft 0kts
02-Jan-18 14:23 39.219671 -106.865054 71 7827ft 0kts
02-Jan-18 14:24 39.219671 -106.865054 71 7827ft 0kts
02-Jan-18 14:25 39.219671 -106.865054 71 7827ft 0kts
02-Jan-18 14:26 39.219671 -106.865054 71 7827ft 0kts
02-Jan-18 14:27 39.219671 -106.865054 71 7827ft 0kts
02-Jan-18 14:28 39.219671 -106.865054 71 7827ft 0kts
02-Jan-18 14:29 39.219671 -106.865054 71 7827ft 0kts
02-Jan-18 14:30 39.219671 -106.865054 71 7827ft 0kts
02-Jan-18 14:31 39.219671 -106.865054 71 7827ft 0kts
02-Jan-18 14:32 39.219671 -106.865054 71 7827ft 0kts
02-Jan-18 14:33 39.219671 -106.865054 71 7827ft 0kts
02-Jan-18 14:34 39.219664 -106.865081 71 7827ft 1kts
02-Jan-18 14:35 39.219606 -106.865854 124 7827ft 2kts
02-Jan-18 14:36 39.219951 -106.866078 159 7827ft 0kts
02-Jan-18 14:37 39.219951 -106.866078 159 7827ft 0kts
02-Jan-18 14:38 39.219951 -106.866078 159 7827ft 0kts
02-Jan-18 14:39 39.219951 -106.866078 159 7827ft 0kts
02-Jan-18 14:40 39.218723 -106.865988 166 7827ft 10kts
02-Jan-18 14:41 39.215464 -106.864450 159 7827ft 9kts
02-Jan-18 14:42 39.214598 -106.863996 213 7827ft 0kts
02-Jan-18 14:43 39.214437 -106.864546 292 7827ft 4kts
02-Jan-18 14:44 39.215289 -106.865090 338 7827ft 33kts
02-Jan-18 14:45 39.243995 -106.877412 343 8480ft 144kts
02-Jan-18 14:46 39.289334 -106.896971 296 9687ft 218kts
02-Jan-18 14:47 39.304972 -106.978757 282 11332ft 247kts
02-Jan-18 14:48 39.324673 -107.065429 309 13039ft 255kts
02-Jan-18 14:49 39.384703 -107.092936 25 14872ft 257kts
02-Jan-18 14:50 39.416935 -107.008349 66 16715ft 275kts
02-Jan-18 14:51 39.392879 -106.915223 142 17577ft 329kts
02-Jan-18 14:52 39.301387 -106.913700 190 18443ft 343kts
02-Jan-18 14:53 39.206195 -106.930697 184 19269ft 347kts
02-Jan-18 14:54 39.109469 -106.943378 185 19985ft 352kts
02-Jan-18 14:55 39.012703 -106.957816 185 20663ft 355kts
02-Jan-18 14:56 38.915371 -106.972236 185 21196ft 359kts
02-Jan-18 14:57 38.816340 -106.986779 185 21673ft 361kts
02-Jan-18 14:58 38.717695 -107.001042 185 22107ft 363kts
02-Jan-18 14:59 38.616849 -107.015771 186 22485ft 366kts
02-Jan-18 15:00 38.516663 -107.030367 185 22822ft 369kts
02-Jan-18 15:01 38.419285 -107.057482 209 23342ft 368kts
02-Jan-18 15:02 38.328579 -107.119639 209 24297ft 376kts
02-Jan-18 15:03 38.231731 -107.179965 208 24407ft 399kts
02-Jan-18 15:04 38.133366 -107.242443 209 24417ft 413kts
02-Jan-18 15:05 38.029938 -107.307574 209 24404ft 414kts
02-Jan-18 15:06 37.931360 -107.368544 210 24415ft 395kts
02-Jan-18 15:07 37.833731 -107.430459 211 24385ft 394kts
02-Jan-18 15:08 37.736992 -107.491285 210 24386ft 392kts
02-Jan-18 15:09 37.638993 -107.552193 211 24380ft 393kts
02-Jan-18 15:10 37.540820 -107.613239 210 24373ft 393kts
02-Jan-18 15:11 37.442936 -107.673841 210 24359ft 393kts
02-Jan-18 15:12 37.345400 -107.734039 210 24352ft 393kts
02-Jan-18 15:13 37.248219 -107.793771 211 24336ft 392kts
02-Jan-18 15:14 37.151172 -107.853476 210 24331ft 390kts
02-Jan-18 15:15 37.053547 -107.913211 210 24328ft 390kts
02-Jan-18 15:16 36.957534 -107.971762 210 24323ft 389kts
02-Jan-18 15:17 36.860743 -108.030479 211 24315ft 389kts
02-Jan-18 15:18 36.764258 -108.089052 212 24305ft 386kts
02-Jan-18 15:19 36.670710 -108.146805 213 24302ft 383kts
02-Jan-18 15:20 36.575959 -108.205344 213 24305ft 381kts
02-Jan-18 15:21 36.481885 -108.263283 213 24307ft 380kts
02-Jan-18 15:22 36.387661 -108.321006 213 24311ft 380kts
02-Jan-18 15:23 36.309651 -108.368874 213 24315ft 379kts
02-Jan-18 15:24 36.215398 -108.426625 213 24320ft 379kts
02-Jan-18 15:25 36.105735 -108.493343 213 24326ft 379kts
02-Jan-18 15:26 36.027634 -108.540744 213 24330ft 379kts
02-Jan-18 15:27 35.919323 -108.606330 213 24334ft 378kts
02-Jan-18 15:28 35.841822 -108.653186 213 24338ft 378kts
02-Jan-18 15:29 35.748940 -108.709066 213 24340ft 377kts
02-Jan-18 15:30 35.639324 -108.774909 212 24340ft 377kts
02-Jan-18 15:31 35.560789 -108.822004 212 24339ft 375kts
02-Jan-18 15:32 35.469261 -108.880401 225 24335ft 363kts
02-Jan-18 15:33 35.403423 -108.968334 235 24340ft 353kts
02-Jan-18 15:34 35.335467 -109.054896 233 24340ft 354kts
02-Jan-18 15:35 35.267989 -109.141829 234 24341ft 353kts
02-Jan-18 15:36 35.201187 -109.227956 233 24341ft 353kts
02-Jan-18 15:37 35.133824 -109.314377 233 24337ft 353kts
02-Jan-18 15:38 35.066732 -109.400314 233 24335ft 352kts
02-Jan-18 15:39 34.999309 -109.486329 233 24337ft 352kts
02-Jan-18 15:40 34.932307 -109.571693 233 24337ft 352kts
02-Jan-18 15:41 34.865336 -109.656784 233 24337ft 352kts
02-Jan-18 15:42 34.798435 -109.741767 233 24338ft 351kts
02-Jan-18 15:43 34.739070 -109.817380 233 24339ft 335kts
02-Jan-18 15:44 34.689038 -109.904294 255 24343ft 320kts
02-Jan-18 15:45 34.654368 -110.002213 252 24343ft 327kts
02-Jan-18 15:46 34.619063 -110.096706 251 24344ft 321kts
02-Jan-18 15:47 34.586085 -110.183259 251 24343ft 318kts
02-Jan-18 15:48 34.549618 -110.280385 251 24345ft 322kts
02-Jan-18 15:49 34.512511 -110.378856 251 24346ft 324kts
02-Jan-18 15:50 34.475127 -110.477809 251 24342ft 325kts
02-Jan-18 15:51 34.437753 -110.576450 250 24337ft 326kts
02-Jan-18 15:52 34.399922 -110.675854 250 24332ft 327kts
02-Jan-18 15:53 34.361910 -110.775544 250 24322ft 328kts
02-Jan-18 15:54 34.303394 -110.862879 232 23121ft 340kts
02-Jan-18 15:55 34.239366 -110.945018 232 21331ft 337kts
02-Jan-18 15:56 34.175835 -111.026663 232 19669ft 332kts
02-Jan-18 15:57 34.114386 -111.105006 232 18479ft 319kts
02-Jan-18 15:58 34.054879 -111.181526 232 17281ft 308kts
02-Jan-18 15:59 33.996876 -111.255965 232 16073ft 299kts
02-Jan-18 16:00 33.941434 -111.327309 230 14885ft 291kts
02-Jan-18 16:01 33.886727 -111.396622 229 13696ft 285kts
02-Jan-18 16:02 33.823461 -111.454102 217 12492ft 281kts
02-Jan-18 16:03 33.764099 -111.504535 217 11279ft 245kts
02-Jan-18 16:04 33.706074 -111.555072 215 9640ft 280kts
02-Jan-18 16:05 33.641823 -111.610044 214 7654ft 287kts
02-Jan-18 16:06 33.582008 -111.659608 213 5630ft 232kts
02-Jan-18 16:07 33.531204 -111.702085 213 4332ft 226kts
02-Jan-18 16:08 33.475828 -111.749260 219 4359ft 255kts
02-Jan-18 16:09 33.446098 -111.800515 244 3979ft 210kts
02-Jan-18 16:10 33.439952 -111.862087 270 2992ft 182kts
02-Jan-18 16:11 33.440094 -111.916443 272 2385ft 155kts
02-Jan-18 16:12 33.440701 -111.964078 271 1815ft 131kts
02-Jan-18 16:13 33.440849 -112.005080 268 1143ft 76kts
02-Jan-18 16:14 33.439827 -112.011206 184 1142ft 0kts
02-Jan-18 16:15 33.438430 -112.012138 78 1142ft 0kts
02-Jan-18 16:16 33.438430 -112.012138 78 1142ft 0kts
02-Jan-18 16:17 33.438430 -112.012138 78 1142ft 0kts
02-Jan-18 16:18 33.438813 -112.011299 55 1142ft 6kts
02-Jan-18 16:19 33.439013 -112.009191 89 1142ft 6kts
02-Jan-18 16:20 33.439000 -112.004475 90 1142ft 27kts
02-Jan-18 16:21 33.439006 -111.996352 90 1142ft 8kts
02-Jan-18 16:22 33.437664 -111.995644 179 1142ft 5kts
02-Jan-18 16:23 33.436564 -111.995565 216 1142ft 1kts
02-Jan-18 16:24 33.436463 -111.995658 218 1142ft 0kts
02-Jan-18 16:25 33.436463 -111.995658 218 1142ft 0kts
02-Jan-18 16:26 33.436463 -111.995658 218 1142ft 0kts
02-Jan-18 16:27 33.436463 -111.995658 218 1142ft 0kts
02-Jan-18 16:28 33.436463 -111.995658 218 1142ft 0kts

Navigation Log

Ident Type
Flight plan parsing failed, navigation log unavailable